Terminal Aerodrome Forecast
Issued by NWS Midland/Odessa, TX

Home | Current Version | Previous Version | Text Only | Print | Product List | Glossary On
Versions: 1 2 3 4 5 6 7 8 9 10 11 12 13 14 15 16 17 18 19 20 21 22 23 24 25 26 27 28 29 30 31
000
FTUS44 KMAF 290100 AAA
TAFMAF
TAF AMD
KMAF 290117Z 2901/2924 10015KT P6SM FEW050 BKN120
     FM290800 16012KT P6SM OVC020
     FM292100 17010KT P6SM SCT060 SCT250=

USA.gov is the U.S. government's official web portal to all federal, state and local government web resources and services.